createdAt,value
2019-01-31T00:01:38.577Z,30.43
2019-01-31T00:06:47.031Z,31.27
2019-01-31T00:11:58.612Z,32.33
2019-01-31T00:17:10.281Z,29.30
2019-01-31T00:22:18.849Z,25.48
2019-01-31T00:27:39.687Z,23.38
2019-01-31T00:32:48.430Z,25.85
2019-01-31T00:37:54.051Z,26.73
2019-01-31T00:42:59.691Z,21.00
2019-01-31T00:48:05.319Z,23.60
2019-01-31T00:53:14.658Z,29.27
2019-01-31T00:58:23.005Z,29.25
2019-01-31T01:03:31.450Z,25.30
2019-01-31T01:08:37.094Z,25.80
2019-01-31T01:13:42.719Z,22.20
2019-01-31T01:18:48.343Z,20.37
2019-01-31T01:23:53.974Z,23.67
2019-01-31T01:28:59.610Z,27.30
2019-01-31T01:34:05.241Z,24.35
2019-01-31T01:39:19.233Z,19.37
2019-01-31T01:44:24.979Z,26.12
2019-01-31T01:49:30.603Z,19.48
2019-01-31T01:54:42.264Z,25.95
2019-01-31T01:59:48.058Z,23.12
2019-01-31T02:04:53.780Z,20.50
2019-01-31T02:09:59.407Z,26.15
2019-01-31T02:15:10.993Z,25.25
2019-01-31T02:20:16.627Z,24.65
2019-01-31T02:25:24.979Z,24.90
2019-01-31T02:30:42.575Z,23.65
2019-01-31T02:35:53.931Z,25.37
2019-01-31T02:41:02.324Z,24.60
2019-01-31T02:46:13.903Z,22.42
2019-01-31T02:51:36.087Z,21.65
2019-01-31T02:56:44.400Z,22.27
2019-01-31T03:01:50.040Z,23.05
2019-01-31T03:06:55.686Z,21.60
2019-01-31T03:12:03.952Z,22.32
2019-01-31T03:17:26.059Z,21.10
2019-01-31T03:22:47.034Z,21.75
2019-01-31T03:27:53.740Z,19.80
2019-01-31T03:33:16.222Z,19.60
2019-01-31T03:38:21.849Z,22.77
2019-01-31T03:43:33.472Z,23.10
2019-01-31T03:48:45.090Z,21.77
2019-01-31T03:53:59.477Z,22.17
2019-01-31T03:59:10.915Z,22.27
2019-01-31T04:04:32.970Z,22.93
2019-01-31T04:09:36.978Z,24.72
2019-01-31T04:14:40.998Z,33.73
2019-01-31T04:19:45.003Z,30.05
2019-01-31T04:24:49.012Z,23.30
2019-01-31T04:29:52.989Z,30.40
2019-01-31T04:34:56.937Z,26.27
2019-01-31T04:40:00.962Z,26.87
2019-01-31T04:45:06.149Z,25.85
2019-01-31T04:50:11.769Z,21.15
2019-01-31T04:55:16.001Z,25.03
2019-01-31T05:00:20.174Z,18.03
2019-01-31T05:05:24.161Z,19.95
2019-01-31T05:10:28.155Z,17.13
2019-01-31T05:15:32.170Z,18.57
2019-01-31T05:20:36.221Z,18.73
2019-01-31T05:25:40.301Z,17.32
2019-01-31T05:30:44.277Z,19.02
2019-01-31T05:35:48.190Z,18.83
2019-01-31T05:40:55.751Z,17.10
2019-01-31T05:45:57.815Z,18.27
2019-01-31T05:51:01.812Z,18.87
2019-01-31T05:56:05.914Z,16.67
2019-01-31T06:01:10.897Z,17.25
2019-01-31T06:06:14.880Z,18.15
2019-01-31T06:11:18.904Z,17.85
2019-01-31T06:16:22.897Z,19.37
2019-01-31T06:21:26.967Z,18.73
2019-01-31T06:26:30.946Z,19.02
2019-01-31T06:31:36.325Z,18.48
2019-01-31T06:36:40.250Z,18.80
2019-01-31T06:41:44.442Z,17.40
2019-01-31T06:46:48.457Z,24.57
2019-01-31T06:51:52.455Z,22.48
2019-01-31T06:56:56.469Z,19.07
2019-01-31T07:02:00.450Z,20.02
2019-01-31T07:07:04.466Z,22.35
2019-01-31T07:12:08.462Z,22.90
2019-01-31T07:17:12.445Z,22.82
2019-01-31T07:22:16.739Z,25.00
2019-01-31T07:27:20.731Z,20.37
2019-01-31T07:32:24.746Z,21.80
2019-01-31T07:37:28.692Z,27.45
2019-01-31T07:42:32.696Z,25.23
2019-01-31T07:47:36.970Z,27.65
2019-01-31T07:52:41.045Z,28.27
2019-01-31T07:57:45.042Z,35.78
2019-01-31T08:02:49.099Z,42.60
2019-01-31T08:07:54.167Z,47.03
2019-01-31T08:12:59.363Z,42.50
2019-01-31T08:18:03.348Z,35.83
2019-01-31T08:23:08.456Z,30.97
2019-01-31T08:28:12.466Z,35.48
2019-01-31T08:33:18.019Z,45.00
2019-01-31T08:38:22.033Z,48.68
2019-01-31T08:43:26.046Z,51.25
2019-01-31T08:48:30.047Z,43.48
2019-01-31T08:53:33.999Z,38.67
2019-01-31T08:58:39.372Z,33.42
2019-01-31T09:03:43.343Z,44.03
2019-01-31T09:08:47.343Z,42.20
2019-01-31T09:13:51.373Z,39.00
2019-01-31T09:18:55.471Z,35.90
2019-01-31T09:24:01.090Z,28.73
2019-01-31T09:29:25.133Z,36.05
2019-01-31T09:34:36.536Z,46.08
2019-01-31T09:39:49.037Z,42.67
2019-01-31T09:44:54.665Z,39.53
2019-01-31T09:50:06.508Z,35.85
2019-01-31T09:55:24.220Z,40.38
2019-01-31T10:00:35.855Z,39.48
2019-01-31T10:05:50.302Z,33.45
2019-01-31T10:10:56.010Z,37.00
2019-01-31T10:16:08.850Z,36.23
2019-01-31T10:21:29.485Z,37.83
2019-01-31T10:26:35.115Z,35.30
2019-01-31T10:31:40.818Z,43.28
2019-01-31T10:36:55.291Z,42.75
2019-01-31T10:42:03.679Z,33.65
2019-01-31T10:47:25.803Z,39.18
2019-01-31T10:52:31.452Z,32.25
2019-01-31T10:57:40.027Z,35.10
2019-01-31T11:02:48.791Z,34.78
2019-01-31T11:07:59.528Z,23.67
2019-01-31T11:13:21.340Z,26.20
2019-01-31T11:18:32.697Z,25.55
2019-01-31T11:23:38.322Z,28.10
2019-01-31T11:29:00.904Z,24.85
2019-01-31T11:34:18.525Z,27.60
2019-01-31T11:39:41.118Z,26.00
2019-01-31T11:45:03.559Z,28.90
2019-01-31T11:50:25.713Z,29.18
2019-01-31T11:55:37.202Z,24.72
2019-01-31T12:00:41.206Z,24.63
2019-01-31T12:05:45.236Z,27.07
2019-01-31T12:10:49.250Z,24.87
2019-01-31T12:15:53.495Z,25.23
2019-01-31T12:20:57.498Z,27.22
2019-01-31T12:26:01.514Z,29.57
2019-01-31T12:31:05.513Z,28.20
2019-01-31T12:36:09.493Z,28.55
2019-01-31T12:41:13.515Z,28.57
2019-01-31T12:46:17.510Z,25.37
2019-01-31T12:51:21.534Z,24.15
2019-01-31T12:56:25.530Z,27.52
2019-01-31T13:01:29.548Z,24.75
2019-01-31T13:06:33.566Z,25.17
2019-01-31T13:11:37.557Z,24.82
2019-01-31T13:16:41.575Z,24.60
2019-01-31T13:21:45.584Z,24.27
2019-01-31T13:26:49.588Z,21.48
2019-01-31T13:31:53.618Z,20.55
2019-01-31T13:36:57.633Z,23.40
2019-01-31T13:42:01.637Z,21.48
2019-01-31T13:47:05.618Z,22.70
2019-01-31T13:52:09.625Z,21.27
2019-01-31T13:57:13.646Z,23.12
2019-01-31T14:02:17.662Z,22.05
2019-01-31T14:07:21.665Z,27.40
2019-01-31T14:12:25.742Z,26.80
2019-01-31T14:17:30.155Z,42.95
2019-01-31T14:22:42.851Z,54.50
2019-01-31T14:27:39.815Z,42.43
2019-01-31T14:32:44.496Z,36.98
2019-01-31T14:37:49.967Z,29.18
2019-01-31T14:42:54.144Z,28.75
2019-01-31T14:47:58.181Z,36.03
2019-01-31T14:53:02.221Z,45.65
2019-01-31T14:58:06.951Z,39.13
2019-01-31T15:03:10.949Z,37.70
2019-01-31T15:08:14.961Z,36.88
2019-01-31T15:13:18.948Z,39.13
2019-01-31T15:18:23.000Z,56.88
2019-01-31T15:23:27.108Z,58.90
2019-01-31T15:28:31.156Z,69.10
2019-01-31T15:33:35.195Z,71.07
2019-01-31T15:38:39.189Z,66.28
2019-01-31T15:43:43.192Z,57.62
2019-01-31T15:48:47.267Z,35.15
2019-01-31T15:53:51.396Z,30.60
2019-01-31T15:58:55.395Z,28.80
2019-01-31T16:04:01.077Z,28.65
2019-01-31T16:09:06.123Z,38.40
2019-01-31T16:14:10.227Z,30.72
2019-01-31T16:19:14.203Z,34.20
2019-01-31T16:24:21.150Z,32.00
2019-01-31T16:29:25.423Z,32.03
2019-01-31T16:34:29.468Z,33.00
2019-01-31T16:39:33.470Z,28.95
2019-01-31T16:44:37.538Z,23.67
2019-01-31T16:49:41.562Z,39.38
2019-01-31T16:54:45.804Z,36.70
2019-01-31T16:59:49.838Z,44.00
2019-01-31T17:04:54.102Z,36.95
2019-01-31T17:09:58.176Z,38.58
2019-01-31T17:15:02.306Z,37.93
2019-01-31T17:20:14.017Z,36.23
2019-01-31T17:25:18.164Z,41.88
2019-01-31T17:30:24.982Z,41.95
2019-01-31T17:35:29.094Z,40.38
2019-01-31T17:40:34.739Z,43.92
2019-01-31T17:45:38.743Z,38.25
2019-01-31T17:50:42.835Z,39.18
2019-01-31T17:55:46.759Z,40.35
2019-01-31T18:00:52.433Z,41.33
2019-01-31T18:05:56.433Z,46.68
2019-01-31T18:11:00.468Z,45.92
2019-01-31T18:16:04.544Z,58.33
2019-01-31T18:21:08.574Z,51.13
2019-01-31T18:26:12.582Z,44.58
2019-01-31T18:31:16.607Z,46.28
2019-01-31T18:36:20.687Z,48.78
2019-01-31T18:41:24.825Z,46.83
2019-01-31T18:46:28.879Z,52.43
2019-01-31T18:51:33.093Z,39.53
2019-01-31T18:56:37.118Z,33.92
2019-01-31T19:01:41.199Z,29.35
2019-01-31T19:06:45.214Z,36.15
2019-01-31T19:11:49.225Z,42.85
2019-01-31T19:16:53.258Z,48.73
2019-01-31T19:21:57.364Z,47.70
2019-01-31T19:27:01.502Z,47.38
2019-01-31T19:32:05.602Z,44.40
2019-01-31T19:37:12.929Z,36.87
2019-01-31T19:42:17.145Z,44.20
2019-01-31T19:47:21.152Z,40.38
2019-01-31T19:52:25.186Z,38.65
2019-01-31T19:57:30.882Z,37.23
2019-01-31T20:02:34.905Z,39.33
2019-01-31T20:07:38.978Z,40.00
2019-01-31T20:12:42.974Z,39.58
2019-01-31T20:17:47.572Z,41.50
2019-01-31T20:22:53.219Z,45.63
2019-01-31T20:27:57.169Z,44.67
2019-01-31T20:33:01.351Z,54.57
2019-01-31T20:38:05.474Z,49.03
2019-01-31T20:43:10.663Z,47.97
2019-01-31T20:48:14.662Z,47.03
2019-01-31T20:53:18.755Z,48.60
2019-01-31T20:58:23.200Z,47.83
2019-01-31T21:03:27.284Z,46.10
2019-01-31T21:08:34.266Z,44.43
2019-01-31T21:13:37.020Z,48.53
2019-01-31T21:18:41.059Z,52.67
2019-01-31T21:23:45.070Z,53.07
2019-01-31T21:28:49.211Z,48.03
2019-01-31T21:33:53.215Z,41.73
2019-01-31T21:38:57.262Z,40.95
2019-01-31T21:44:01.343Z,39.43
2019-01-31T21:49:05.415Z,36.50
2019-01-31T21:54:09.408Z,30.80
2019-01-31T21:59:13.602Z,39.43
2019-01-31T22:04:17.654Z,39.80
2019-01-31T22:09:22.759Z,38.90
2019-01-31T22:14:26.797Z,38.07
2019-01-31T22:19:30.812Z,34.73
2019-01-31T22:24:34.860Z,40.23
2019-01-31T22:29:38.964Z,38.43
2019-01-31T22:34:44.151Z,37.63
2019-01-31T22:39:48.143Z,34.95
2019-01-31T22:44:52.220Z,35.60
2019-01-31T22:49:56.413Z,33.23
2019-01-31T22:55:00.611Z,34.83
2019-01-31T23:00:11.006Z,33.37
2019-01-31T23:05:15.054Z,33.83
2019-01-31T23:10:19.069Z,33.77
2019-01-31T23:15:23.166Z,35.13
2019-01-31T23:20:29.246Z,32.50
2019-01-31T23:25:40.346Z,34.97
2019-01-31T23:30:39.406Z,36.50
2019-01-31T23:35:43.473Z,38.98
2019-01-31T23:40:47.558Z,40.95
2019-01-31T23:45:51.588Z,42.77
2019-01-31T23:50:55.576Z,40.95
2019-01-31T23:55:59.599Z,43.53
